Time;durP1;ratioP1;P1;durP2;ratioP2;P2;SDS_P1;SDS_P2;PMS_P1;PMS_P2;Temp;Humidity;BMP_temperature;BMP_pressure;BME280_temperature;BME280_humidity;BME280_pressure;Samples;Min_cycle;Max_cycle;Signal;HPM_P1;HPM_P2
2022/08/21 00:00:34;;;;;;;;;;;;;;;15.39;71.94;101663.09;5013647;28;19920;-53
2022/08/21 00:03:01;;;;;;;;;;;;;;;15.35;72.07;101664.47;5010013;28;19921;-54
2022/08/21 00:05:26;;;;;;;;;;;;;;;15.31;72.40;101665.84;5008368;28;19917;-54
2022/08/21 00:07:52;;;;;;;;;;;;;;;15.28;72.50;101660.84;5009312;28;20000;-54
2022/08/21 00:10:17;;;;;;;;;;;;;;;15.25;72.60;101663.88;5007039;28;19996;-53
2022/08/21 00:12:43;;;;;;;;;;;;;;;15.20;72.58;101661.75;5009413;28;19913;-54
2022/08/21 00:15:09;;;;;;;;;;;;;;;15.17;72.59;101659.44;5010489;28;19916;-53
2022/08/21 00:17:35;;;;;;;;;;;;;;;15.14;72.64;101649.09;5010040;28;19921;-52
2022/08/21 00:20:00;;;;;;;;;;;;;;;15.12;72.66;101653.81;5007879;28;19916;-54
2022/08/21 00:22:26;;;;;;;;;;;;;;;15.08;72.34;101658.69;5009616;28;20434;-55
2022/08/21 00:24:51;;;;;;;;;;;;;;;15.07;72.40;101650.84;5006991;28;20297;-55
2022/08/21 00:27:16;;;;;;;;;;;;;;;15.06;72.63;101651.88;5010285;28;20381;-54
2022/08/21 00:29:41;;;;;;;;;;;;;;;15.07;72.47;101653.53;5013912;28;19913;-54
2022/08/21 00:32:06;;;;;;;;;;;;;;;15.08;72.63;101656.03;5001758;28;20416;-55
2022/08/21 00:34:32;;;;;;;;;;;;;;;15.04;72.64;101646.69;5008144;28;19917;-55
2022/08/21 00:36:57;;;;;;;;;;;;;;;14.99;72.81;101654.41;5012143;28;20007;-55
2022/08/21 00:39:22;;;;;;;;;;;;;;;14.95;72.69;101645.06;5010334;28;19959;-53
2022/08/21 00:41:47;;;;;;;;;;;;;;;14.91;72.66;101646.44;5010332;28;19914;-54
2022/08/21 00:44:13;;;;;;;;;;;;;;;14.88;73.13;101644.97;5009928;28;20401;-54
2022/08/21 00:46:39;;;;;;;;;;;;;;;14.85;73.38;101650.69;5008808;28;19921;-54
2022/08/21 00:49:05;;;;;;;;;;;;;;;14.84;73.09;101648.19;5007971;28;19959;-51
2022/08/21 00:51:34;;;;;;;;;;;;;;;14.80;73.60;101641.53;5003745;28;19913;-54
2022/08/21 00:54:00;;;;;;;;;;;;;;;14.78;73.75;101647.06;5004353;28;19943;-55
2022/08/21 00:56:27;;;;;;;;;;;;;;;14.74;73.55;101645.72;5007601;28;20297;-54
2022/08/21 00:58:53;;;;;;;;;;;;;;;14.72;73.62;101638.91;5009180;28;20416;-54
2022/08/21 01:01:19;;;;;;;;;;;;;;;14.71;73.89;101646.09;5005485;28;19995;-54
2022/08/21 01:03:44;;;;;;;;;;;;;;;14.68;74.00;101645.63;5006228;28;20309;-54
2022/08/21 01:06:10;;;;;;;;;;;;;;;14.63;73.85;101646.16;5008278;28;19914;-53
2022/08/21 01:08:35;;;;;;;;;;;;;;;14.61;73.93;101648.16;5008904;28;19914;-55
2022/08/21 01:11:01;;;;;;;;;;;;;;;14.59;74.09;101647.50;5005593;28;19910;-55
2022/08/21 01:13:28;;;;;;;;;;;;;;;14.59;73.83;101649.34;5010315;28;19917;-55
2022/08/21 01:15:56;;;;;;;;;;;;;;;14.59;73.92;101647.50;5012301;28;19909;-54
2022/08/21 01:18:22;;;;;;;;;;;;;;;14.60;73.70;101646.50;5006588;28;20374;-54
2022/08/21 01:21:06;;;;;;;;;;;;;;;14.64;74.11;101641.63;5008434;28;19915;-54
2022/08/21 01:23:32;;;;;;;;;;;;;;;14.65;74.22;101638.78;5004806;28;19914;-53
2022/08/21 01:25:57;;;;;;;;;;;;;;;14.63;74.06;101643.47;5006995;28;20380;-55
2022/08/21 01:28:22;;;;;;;;;;;;;;;14.63;73.80;101646.16;5007868;28;19913;-54
2022/08/21 01:30:48;;;;;;;;;;;;;;;14.60;73.49;101643.00;5009957;28;19998;-54
2022/08/21 01:33:13;;;;;;;;;;;;;;;14.54;73.81;101640.03;5009411;28;19967;-55
2022/08/21 01:35:38;;;;;;;;;;;;;;;14.52;73.69;101638.56;5003277;28;20452;-55
2022/08/21 01:38:03;;;;;;;;;;;;;;;14.52;73.70;101644.72;5002786;28;19924;-55
2022/08/21 01:40:29;;;;;;;;;;;;;;;14.49;73.94;101644.25;5007188;28;19920;-54
2022/08/21 01:42:54;;;;;;;;;;;;;;;14.44;74.09;101639.41;5005150;28;20706;-54
2022/08/21 01:45:20;;;;;;;;;;;;;;;14.38;73.72;101640.09;5007546;28;19920;-54
2022/08/21 01:47:45;;;;;;;;;;;;;;;14.35;74.00;101644.94;5011150;28;19916;-54
2022/08/21 01:50:12;;;;;;;;;;;;;;;14.33;74.33;101650.47;5008470;28;19999;-54
2022/08/21 01:52:37;;;;;;;;;;;;;;;14.29;74.17;101641.16;5008676;28;20067;-54
2022/08/21 01:55:03;;;;;;;;;;;;;;;14.25;74.43;101642.50;5007442;28;19957;-54
2022/08/21 01:57:28;;;;;;;;;;;;;;;14.22;74.06;101638.34;5005659;28;20408;-54
2022/08/21 01:59:54;;;;;;;;;;;;;;;14.20;74.24;101635.03;5005459;28;19917;-55
2022/08/21 02:02:19;;;;;;;;;;;;;;;14.20;74.22;101636.88;5011074;28;19967;-52
2022/08/21 02:04:44;;;;;;;;;;;;;;;14.19;74.18;101638.69;5015235;28;20618;-54
2022/08/21 02:07:09;;;;;;;;;;;;;;;14.16;74.55;101625.66;5013285;28;19913;-54
2022/08/21 02:09:35;;;;;;;;;;;;;;;14.17;74.57;101626.53;5016165;28;19917;-52
2022/08/21 02:12:00;;;;;;;;;;;;;;;14.19;74.42;101625.34;5011030;28;19959;-54
2022/08/21 02:14:25;;;;;;;;;;;;;;;14.19;74.10;101619.16;5016661;28;19967;-54
2022/08/21 02:16:50;;;;;;;;;;;;;;;14.17;74.66;101623.84;5013471;28;20562;-53
2022/08/21 02:19:16;;;;;;;;;;;;;;;14.13;74.49;101620.69;5022728;28;19921;-54
2022/08/21 02:21:41;;;;;;;;;;;;;;;14.09;74.12;101616.69;5010256;28;19999;-54
2022/08/21 02:24:07;;;;;;;;;;;;;;;14.07;74.44;101618.72;5012622;28;19917;-54
2022/08/21 02:26:32;;;;;;;;;;;;;;;14.06;74.31;101616.22;5018813;28;19967;-53
2022/08/21 02:28:57;;;;;;;;;;;;;;;14.05;74.07;101618.06;5017226;28;19914;-53
2022/08/21 02:31:23;;;;;;;;;;;;;;;14.10;74.43;101622.88;5015115;28;19914;-52
2022/08/21 02:33:48;;;;;;;;;;;;;;;14.14;74.33;101621.50;5014386;28;19919;-53
2022/08/21 02:36:13;;;;;;;;;;;;;;;14.15;74.85;101621.34;5015363;28;19909;-54
2022/08/21 02:38:40;;;;;;;;;;;;;;;14.10;74.66;101617.53;5016855;28;19913;-54
2022/08/21 02:41:07;;;;;;;;;;;;;;;14.03;74.67;101616.56;5015205;28;19913;-53
2022/08/21 02:43:32;;;;;;;;;;;;;;;13.97;74.60;101614.59;5012887;28;20412;-52
2022/08/21 02:45:58;;;;;;;;;;;;;;;13.91;74.96;101603.63;5012526;28;19913;-53
2022/08/21 02:48:25;;;;;;;;;;;;;;;13.87;74.76;101612.94;5015796;28;19917;-53
2022/08/21 02:50:55;;;;;;;;;;;;;;;13.82;75.17;101604.63;5017801;28;20404;-53
2022/08/21 02:53:20;;;;;;;;;;;;;;;13.76;75.20;101610.66;5017481;28;19921;-52
2022/08/21 02:55:47;;;;;;;;;;;;;;;13.73;75.01;101605.69;5015261;28;19956;-54
2022/08/21 02:58:14;;;;;;;;;;;;;;;13.75;75.12;101602.81;5015567;28;19913;-50
2022/08/21 03:00:40;;;;;;;;;;;;;;;13.75;75.17;101609.00;5016816;28;19913;-53
2022/08/21 03:03:05;;;;;;;;;;;;;;;13.73;75.09;101604.84;5016505;28;20292;-53
2022/08/21 03:05:31;;;;;;;;;;;;;;;13.71;75.38;101612.19;5018168;28;19957;-53
2022/08/21 03:07:58;;;;;;;;;;;;;;;13.68;75.35;101607.19;5014604;28;20293;-52
2022/08/21 03:10:24;;;;;;;;;;;;;;;13.63;75.30;101605.06;5014243;28;19913;-50
2022/08/21 03:12:50;;;;;;;;;;;;;;;13.61;75.38;101607.91;5015626;28;19914;-52
2022/08/21 03:15:17;;;;;;;;;;;;;;;13.60;75.54;101605.41;5011875;28;19924;-53
2022/08/21 03:17:42;;;;;;;;;;;;;;;13.57;75.61;101601.22;5006315;28;20002;-54
2022/08/21 03:20:08;;;;;;;;;;;;;;;13.57;75.67;101595.03;5006525;28;19965;-53
2022/08/21 03:22:33;;;;;;;;;;;;;;;13.55;76.02;101589.88;5015552;28;20381;-54
2022/08/21 03:24:59;;;;;;;;;;;;;;;13.54;75.89;101596.22;5014809;28;19921;-54
2022/08/21 03:27:26;;;;;;;;;;;;;;;13.53;76.12;101593.72;5011829;28;19996;-54
2022/08/21 03:29:51;;;;;;;;;;;;;;;13.52;75.76;101589.38;5010427;28;19913;-55
2022/08/21 03:32:16;;;;;;;;;;;;;;;13.53;75.72;101589.22;5010115;28;20008;-53
2022/08/21 03:34:41;;;;;;;;;;;;;;;13.54;75.59;101592.72;5011038;28;19909;-54
2022/08/21 03:37:08;;;;;;;;;;;;;;;13.52;75.68;101592.06;5009526;28;19948;-54
2022/08/21 03:39:33;;;;;;;;;;;;;;;13.52;75.58;101581.38;5010823;28;19918;-54
2022/08/21 03:41:59;;;;;;;;;;;;;;;13.51;75.49;101583.22;5011181;28;19920;-54
2022/08/21 03:44:25;;;;;;;;;;;;;;;13.54;75.76;101588.22;5009867;28;19918;-54
2022/08/21 03:46:50;;;;;;;;;;;;;;;13.54;75.64;101585.53;5011347;28;19968;-54
2022/08/21 03:49:15;;;;;;;;;;;;;;;13.54;75.87;101580.22;5010309;28;19940;-53
2022/08/21 03:51:41;;;;;;;;;;;;;;;13.56;75.77;101583.53;5012779;28;19918;-54
2022/08/21 03:54:06;;;;;;;;;;;;;;;13.58;75.91;101576.19;5010063;28;19920;-52
2022/08/21 03:56:31;;;;;;;;;;;;;;;13.60;75.76;101579.53;5011067;28;19913;-53
2022/08/21 03:58:57;;;;;;;;;;;;;;;13.61;76.05;101572.38;5009113;28;19921;-54
2022/08/21 04:01:22;;;;;;;;;;;;;;;13.64;75.90;101574.69;5010814;28;19940;-52
2022/08/21 04:03:47;;;;;;;;;;;;;;;13.66;76.04;101578.00;5010227;28;19971;-53
2022/08/21 04:06:12;;;;;;;;;;;;;;;13.67;76.10;101574.34;5010218;28;20028;-53
2022/08/21 04:08:38;;;;;;;;;;;;;;;13.69;76.08;101583.00;5016796;28;19960;-52
2022/08/21 04:11:03;;;;;;;;;;;;;;;13.69;76.16;101583.00;5007108;28;19920;-52
2022/08/21 04:13:28;;;;;;;;;;;;;;;13.71;76.46;101590.84;5005882;28;19929;-53
2022/08/21 04:15:54;;;;;;;;;;;;;;;13.70;76.66;101589.19;5009100;28;19921;-54
2022/08/21 04:18:20;;;;;;;;;;;;;;;13.65;77.19;101592.38;5004099;28;19920;-53
2022/08/21 04:20:48;;;;;;;;;;;;;;;13.51;78.02;101601.06;5005862;28;20520;-54
2022/08/21 04:23:13;;;;;;;;;;;;;;;13.38;78.34;101601.63;5002457;28;19913;-52
2022/08/21 04:25:39;;;;;;;;;;;;;;;13.32;78.11;101594.28;5009770;28;19955;-51
2022/08/21 04:28:04;;;;;;;;;;;;;;;13.30;78.13;101602.47;5010323;28;19910;-53
2022/08/21 04:30:29;;;;;;;;;;;;;;;13.29;78.00;101606.09;5010973;28;19913;-53
2022/08/21 04:32:55;;;;;;;;;;;;;;;13.26;78.10;101603.78;5011498;28;20389;-52
2022/08/21 04:35:21;;;;;;;;;;;;;;;13.21;78.43;101605.28;5009392;28;19917;-50
2022/08/21 04:37:47;;;;;;;;;;;;;;;13.15;78.89;101608.63;5007205;28;20067;-53
2022/08/21 04:40:14;;;;;;;;;;;;;;;13.13;79.33;101614.13;5009595;28;19996;-52
2022/08/21 04:42:44;;;;;;;;;;;;;;;13.11;79.53;101615.28;5009280;28;19922;-54
2022/08/21 04:45:09;;;;;;;;;;;;;;;13.10;79.48;101613.63;5006583;28;19951;-53
2022/08/21 04:47:35;;;;;;;;;;;;;;;13.10;79.55;101619.78;5008933;28;19913;-54
2022/08/21 04:50:00;;;;;;;;;;;;;;;13.09;79.40;101611.97;5009085;28;19971;-52
2022/08/21 04:52:25;;;;;;;;;;;;;;;13.08;79.32;101611.13;5008889;28;20399;-52
2022/08/21 04:54:51;;;;;;;;;;;;;;;13.10;79.67;101609.13;5009953;28;19917;-53
2022/08/21 04:57:17;;;;;;;;;;;;;;;13.11;80.24;101612.63;5007353;28;19917;-54
2022/08/21 04:59:45;;;;;;;;;;;;;;;13.13;80.82;101610.63;5008344;28;19909;-52
2022/08/21 05:02:10;;;;;;;;;;;;;;;13.14;81.04;101610.44;5005605;28;19968;-53
2022/08/21 05:04:38;;;;;;;;;;;;;;;13.15;80.93;101612.13;5008859;28;19914;-53
2022/08/21 05:07:05;;;;;;;;;;;;;;;13.18;81.31;101619.81;5008865;28;19967;-53
2022/08/21 05:09:32;;;;;;;;;;;;;;;13.17;81.37;101615.47;5016229;28;19963;-54
2022/08/21 05:11:57;;;;;;;;;;;;;;;13.17;81.77;101620.81;5012353;28;20304;-54
2022/08/21 05:14:23;;;;;;;;;;;;;;;13.16;81.88;101620.94;5009963;28;19936;-53
2022/08/21 05:16:48;;;;;;;;;;;;;;;13.14;82.24;101622.94;5007256;28;20355;-55
2022/08/21 05:19:13;;;;;;;;;;;;;;;13.10;82.64;101627.78;4994742;28;20015;-57
2022/08/21 05:21:41;;;;;;;;;;;;;;;13.07;82.86;101628.13;5000571;28;20431;-56
2022/08/21 05:24:06;;;;;;;;;;;;;;;13.06;83.64;101629.13;4999122;28;20448;-56
2022/08/21 05:26:32;;;;;;;;;;;;;;;13.07;83.82;101636.13;4997758;28;19996;-57
2022/08/21 05:28:57;;;;;;;;;;;;;;;13.06;84.08;101634.47;4999896;28;20053;-57
2022/08/21 05:31:22;;;;;;;;;;;;;;;13.05;84.66;101639.97;4998767;28;19917;-56
2022/08/21 05:33:48;;;;;;;;;;;;;;;13.06;84.50;101637.13;4996341;28;19972;-57
2022/08/21 05:36:13;;;;;;;;;;;;;;;13.08;84.93;101640.47;4997938;28;20053;-57
2022/08/21 05:38:38;;;;;;;;;;;;;;;13.13;85.17;101646.13;4999180;28;19917;-57
2022/08/21 05:41:04;;;;;;;;;;;;;;;13.15;85.72;101644.13;4998037;28;19916;-57
2022/08/21 05:43:29;;;;;;;;;;;;;;;13.18;85.65;101642.97;4999495;28;19909;-56
2022/08/21 05:45:54;;;;;;;;;;;;;;;13.22;86.00;101642.47;4996652;28;19918;-56
2022/08/21 05:48:21;;;;;;;;;;;;;;;13.27;86.21;101641.97;4996421;28;19917;-57
2022/08/21 05:50:48;;;;;;;;;;;;;;;13.32;86.16;101637.81;5004121;28;20488;-56
2022/08/21 05:53:14;;;;;;;;;;;;;;;13.40;86.23;101636.13;5007068;28;19913;-57
2022/08/21 05:55:39;;;;;;;;;;;;;;;13.44;86.59;101634.78;5007659;28;19913;-57
2022/08/21 05:58:05;;;;;;;;;;;;;;;13.51;86.67;101633.09;5007056;28;19913;-56
2022/08/21 06:00:30;;;;;;;;;;;;;;;13.57;86.77;101637.75;5007025;28;19918;-56
2022/08/21 06:02:55;;;;;;;;;;;;;;;13.61;87.13;101634.59;5007916;28;19909;-56
2022/08/21 06:05:20;;;;;;;;;;;;;;;13.66;87.14;101631.41;5008190;28;19921;-57
2022/08/21 06:07:46;;;;;;;;;;;;;;;13.74;87.54;101639.38;5003596;28;20417;-54
2022/08/21 06:10:11;;;;;;;;;;;;;;;13.81;87.76;101632.34;5007071;28;20011;-57
2022/08/21 06:12:36;;;;;;;;;;;;;;;13.89;87.46;101628.81;5001154;28;19922;-55
2022/08/21 06:15:01;;;;;;;;;;;;;;;13.95;87.68;101634.31;5003605;28;19909;-56
2022/08/21 06:17:27;;;;;;;;;;;;;;;14.02;87.71;101633.59;5006913;28;19909;-56
2022/08/21 06:19:53;;;;;;;;;;;;;;;14.08;87.68;101641.75;5008477;28;20359;-55
2022/08/21 06:22:19;;;;;;;;;;;;;;;14.17;87.54;101637.22;5008423;28;20008;-55
2022/08/21 06:24:44;;;;;;;;;;;;;;;14.24;87.91;101646.19;5005821;28;20003;-55
2022/08/21 06:27:09;;;;;;;;;;;;;;;14.32;87.77;101645.31;5007451;28;19963;-57
2022/08/21 06:29:35;;;;;;;;;;;;;;;14.43;88.09;101645.75;5011799;28;20023;-56
2022/08/21 06:32:00;;;;;;;;;;;;;;;14.53;88.02;101640.22;5004521;28;20434;-54
2022/08/21 06:34:26;;;;;;;;;;;;;;;14.59;87.52;101638.66;5011081;28;20519;-56
2022/08/21 06:36:51;;;;;;;;;;;;;;;14.63;87.32;101640.81;5010529;28;19914;-56
2022/08/21 06:39:16;;;;;;;;;;;;;;;14.69;87.61;101639.25;5012348;28;19917;-57
2022/08/21 06:41:41;;;;;;;;;;;;;;;14.75;87.38;101641.25;5011491;28;19916;-57
2022/08/21 06:44:07;;;;;;;;;;;;;;;14.81;87.21;101645.88;5002797;28;19914;-55
2022/08/21 06:46:32;;;;;;;;;;;;;;;14.90;87.08;101646.63;5009912;28;20007;-55
2022/08/21 06:48:58;;;;;;;;;;;;;;;14.97;87.46;101643.06;5008862;28;19920;-57
2022/08/21 06:51:23;;;;;;;;;;;;;;;15.04;87.44;101643.19;5013671;28;20315;-56
2022/08/21 06:53:49;;;;;;;;;;;;;;;15.12;87.06;101648.47;5012810;28;19917;-54
2022/08/21 06:56:14;;;;;;;;;;;;;;;15.16;87.05;101639.88;5006583;28;20297;-51
2022/08/21 06:58:39;;;;;;;;;;;;;;;15.25;86.67;101647.81;5004906;28;20013;-54
2022/08/21 07:01:04;;;;;;;;;;;;;;;15.31;86.73;101645.25;5007493;28;20492;-53
2022/08/21 07:03:31;;;;;;;;;;;;;;;15.40;86.98;101646.03;5009900;28;20299;-55
2022/08/21 07:05:58;;;;;;;;;;;;;;;15.47;87.08;101634.41;5007826;28;20066;-54
2022/08/21 07:08:25;;;;;;;;;;;;;;;15.55;86.78;101638.81;5012884;28;19932;-54
2022/08/21 07:10:51;;;;;;;;;;;;;;;15.62;86.68;101641.66;5012809;28;20274;-54
2022/08/21 07:13:16;;;;;;;;;;;;;;;15.66;86.66;101643.78;5005396;28;19932;-53
2022/08/21 07:15:42;;;;;;;;;;;;;;;15.75;86.56;101631.94;5006176;28;19917;-53
2022/08/21 07:18:07;;;;;;;;;;;;;;;15.84;86.76;101639.88;5004266;28;19913;-55
2022/08/21 07:20:32;;;;;;;;;;;;;;;15.91;86.28;101633.63;5011079;28;20392;-56
2022/08/21 07:23:00;;;;;;;;;;;;;;;15.99;86.26;101644.22;5014114;28;19909;-56
2022/08/21 07:25:25;;;;;;;;;;;;;;;16.09;86.73;101641.25;5007626;28;19997;-54
2022/08/21 07:27:50;;;;;;;;;;;;;;;16.19;86.40;101633.78;5004989;28;20044;-53
2022/08/21 07:30:16;;;;;;;;;;;;;;;16.27;86.48;101639.00;5000443;28;20369;-57
2022/08/21 07:32:41;;;;;;;;;;;;;;;16.33;85.64;101635.56;5007196;28;20638;-56
2022/08/21 07:35:07;;;;;;;;;;;;;;;16.37;85.76;101642.22;5013367;28;19909;-56
2022/08/21 07:37:32;;;;;;;;;;;;;;;16.41;85.72;101637.28;5014497;28;19922;-55
2022/08/21 07:39:57;;;;;;;;;;;;;;;16.43;85.51;101641.44;5006500;28;20008;-57
2022/08/21 07:42:23;;;;;;;;;;;;;;;16.48;85.23;101637.34;5007722;28;19913;-55
2022/08/21 07:44:48;;;;;;;;;;;;;;;16.53;85.29;101637.66;5010747;28;20396;-52
2022/08/21 07:47:13;;;;;;;;;;;;;;;16.58;85.19;101638.72;5006255;28;20475;-55
2022/08/21 07:49:39;;;;;;;;;;;;;;;16.67;85.10;101639.47;5010964;28;20305;-54
2022/08/21 07:52:04;;;;;;;;;;;;;;;16.77;85.12;101637.31;5007295;28;19917;-54
2022/08/21 07:54:29;;;;;;;;;;;;;;;16.83;84.36;101638.38;5010514;28;19914;-55
2022/08/21 07:56:55;;;;;;;;;;;;;;;16.89;84.25;101641.13;5011677;28;19988;-55
2022/08/21 07:59:20;;;;;;;;;;;;;;;16.96;83.93;101641.19;5012864;28;20389;-54
2022/08/21 08:01:46;;;;;;;;;;;;;;;17.08;83.72;101639.66;5009983;28;19924;-55
2022/08/21 08:04:11;;;;;;;;;;;;;;;17.19;83.66;101640.97;5003347;28;20593;-55
2022/08/21 08:06:36;;;;;;;;;;;;;;;17.29;83.77;101639.59;5013615;28;19924;-55
2022/08/21 08:09:03;;;;;;;;;;;;;;;17.41;83.27;101642.59;5014426;28;19917;-55
2022/08/21 08:11:28;;;;;;;;;;;;;;;17.50;83.31;101633.34;5010547;28;19913;-53
2022/08/21 08:13:53;;;;;;;;;;;;;;;17.61;82.23;101630.09;5008565;28;19936;-55
2022/08/21 08:16:19;;;;;;;;;;;;;;;17.64;81.87;101632.41;5012021;28;19920;-55
2022/08/21 08:18:45;;;;;;;;;;;;;;;17.66;81.54;101632.22;5008304;28;20304;-55
2022/08/21 08:21:10;;;;;;;;;;;;;;;17.77;81.79;101637.06;5009217;28;19953;-55
2022/08/21 08:23:35;;;;;;;;;;;;;;;17.87;81.74;101629.44;5008616;28;19995;-53
2022/08/21 08:26:02;;;;;;;;;;;;;;;17.92;80.83;101628.84;5057888;22;20384;-55
2022/08/21 08:28:28;;;;;;;;;;;;;;;18.00;80.42;101619.81;5050669;28;19912;-56
2022/08/21 08:30:53;;;;;;;;;;;;;;;18.12;80.63;101631.63;5045252;28;19913;-57
2022/08/21 08:33:19;;;;;;;;;;;;;;;18.25;80.41;101632.53;5062460;28;19919;-56
2022/08/21 08:35:47;;;;;;;;;;;;;;;18.32;79.68;101623.66;5048620;28;19923;-55
2022/08/21 08:38:15;;;;;;;;;;;;;;;18.36;79.57;101624.91;5028613;28;20474;-56
2022/08/21 08:40:47;;;;;;;;;;;;;;;18.43;78.98;101615.81;5031337;28;19913;-56
2022/08/21 08:43:13;;;;;;;;;;;;;;;18.53;79.29;101613.56;5036147;28;20019;-56
2022/08/21 08:45:40;;;;;;;;;;;;;;;18.66;78.94;101611.97;5041507;28;19916;-56
2022/08/21 08:48:08;;;;;;;;;;;;;;;18.80;78.29;101624.41;5028517;28;19913;-57
2022/08/21 08:50:33;;;;;;;;;;;;;;;18.93;77.83;101618.19;5041218;28;19921;-55
2022/08/21 08:53:04;;;;;;;;;;;;;;;18.96;77.11;101607.84;5030075;28;19963;-56
2022/08/21 08:55:35;;;;;;;;;;;;;;;19.09;77.05;101613.22;5039082;28;19940;-56
2022/08/21 08:58:02;;;;;;;;;;;;;;;19.17;76.01;101602.25;5034695;28;20303;-57
2022/08/21 09:00:27;;;;;;;;;;;;;;;19.27;75.79;101609.06;5039552;28;19973;-57
2022/08/21 09:02:55;;;;;;;;;;;;;;;19.38;76.13;101603.88;5041530;28;19913;-57
2022/08/21 09:05:28;;;;;;;;;;;;;;;19.52;75.14;101611.94;5041035;28;19924;-57
2022/08/21 09:08:13;;;;;;;;;;;;;;;19.64;74.44;101605.69;5038326;28;20364;-57
2022/08/21 09:10:47;;;;;;;;;;;;;;;19.78;74.01;101601.94;5041470;28;19921;-57
2022/08/21 09:13:12;;;;;;;;;;;;;;;19.80;72.41;101601.72;5040993;28;20007;-57
2022/08/21 09:15:43;;;;;;;;;;;;;;;19.77;71.78;101604.84;5041172;28;20487;-57
2022/08/21 09:18:11;;;;;;;;;;;;;;;19.77;70.90;101604.84;5039467;28;19917;-57
2022/08/21 09:20:51;;;;;;;;;;;;;;;19.77;71.04;101591.38;5039522;28;19922;-55
2022/08/21 09:23:35;;;;;;;;;;;;;;;19.87;70.31;101583.66;5034069;28;19919;-57
2022/08/21 09:26:14;;;;;;;;;;;;;;;20.04;69.77;101589.41;5029773;28;20372;-56
2022/08/21 09:28:43;;;;;;;;;;;;;;;20.23;70.09;101601.09;5039080;28;19913;-57
2022/08/21 09:31:15;;;;;;;;;;;;;;;20.33;70.55;101599.59;5036302;28;20011;-57
2022/08/21 09:33:40;;;;;;;;;;;;;;;20.49;70.25;101595.59;5041049;28;20012;-57
2022/08/21 09:36:06;;;;;;;;;;;;;;;20.70;69.41;101595.25;5043403;28;20003;-56
2022/08/21 09:38:32;;;;;;;;;;;;;;;20.81;67.50;101600.97;5042939;28;19931;-57
2022/08/21 09:41:00;;;;;;;;;;;;;;;20.76;65.76;101604.31;5040927;28;19935;-56
2022/08/21 09:43:25;;;;;;;;;;;;;;;20.65;65.55;101596.94;5041597;28;20388;-57
2022/08/21 09:46:09;;;;;;;;;;;;;;;20.66;66.07;101604.00;5039586;28;19947;-57
2022/08/21 09:48:45;;;;;;;;;;;;;;;20.76;65.78;101604.31;5041161;28;19909;-57
2022/08/21 09:51:16;;;;;;;;;;;;;;;20.70;64.94;101600.63;5033915;28;19920;-57
2022/08/21 09:53:47;;;;;;;;;;;;;;;20.60;63.84;101607.56;5037639;28;19978;-57
2022/08/21 09:59:12;;;;;;;;;;;;;;;20.75;63.44;101602.66;5041128;28;19981;-57
2022/08/21 10:01:42;;;;;;;;;;;;;;;20.63;63.03;101604.44;5043292;28;20269;-56
2022/08/21 10:04:08;;;;;;;;;;;;;;;20.67;62.75;101598.38;5033692;28;19963;-55
2022/08/21 10:06:34;;;;;;;;;;;;;;;20.86;61.42;101596.59;5041645;28;20745;-56
2022/08/21 10:09:08;;;;;;;;;;;;;;;21.00;61.36;101611.63;5036765;28;19917;-57
2022/08/21 10:11:34;;;;;;;;;;;;;;;21.11;60.96;101591.19;5039484;28;19954;-57
2022/08/21 10:14:18;;;;;;;;;;;;;;;21.12;61.37;101590.13;5040093;28;19920;-57
2022/08/21 10:16:49;;;;;;;;;;;;;;;21.23;61.73;101597.53;5041482;28;19913;-57
2022/08/21 10:19:33;;;;;;;;;;;;;;;21.41;61.52;101596.75;5042791;28;19948;-57
2022/08/21 10:22:01;;;;;;;;;;;;;;;21.64;60.59;101601.47;5037165;28;19916;-55
2022/08/21 10:24:33;;;;;;;;;;;;;;;21.86;60.45;101596.44;5038460;28;19920;-55
2022/08/21 10:27:11;;;;;;;;;;;;;;;21.89;59.29;101596.78;5038701;28;20515;-57
2022/08/21 10:29:39;;;;;;;;;;;;;;;22.01;58.85;101590.63;5035369;28;19917;-57
2022/08/21 10:32:13;;;;;;;;;;;;;;;22.23;59.23;101586.38;5039240;28;20342;-55
2022/08/21 10:35:01;;;;;;;;;;;;;;;22.36;58.81;101599.75;5036429;28;19924;-53
2022/08/21 10:37:26;;;;;;;;;;;;;;;22.22;58.02;101576.63;5034136;28;19919;-56
2022/08/21 10:40:10;;;;;;;;;;;;;;;22.23;58.24;101581.81;5043973;28;19925;-55
2022/08/21 10:42:38;;;;;;;;;;;;;;;22.34;58.98;101591.03;5043953;28;20007;-56
2022/08/21 10:45:11;;;;;;;;;;;;;;;22.43;58.74;101584.22;5043872;28;19913;-55
2022/08/21 10:47:52;;;;;;;;;;;;;;;22.49;58.74;101587.88;5042710;28;19917;-54
2022/08/21 10:50:17;;;;;;;;;;;;;;;22.47;58.86;101585.41;5038406;28;20079;-56
2022/08/21 10:53:01;;;;;;;;;;;;;;;22.53;57.45;101586.38;5046686;28;20051;-56
2022/08/21 10:55:39;;;;;;;;;;;;;;;22.42;55.50;101579.88;5042503;28;19947;-56
2022/08/21 10:58:08;;;;;;;;;;;;;;;22.27;54.71;101589.50;5042735;28;19944;-56
2022/08/21 11:00:38;;;;;;;;;;;;;;;22.27;54.76;101576.78;5041867;28;19995;-55
2022/08/21 11:03:12;;;;;;;;;;;;;;;22.38;54.80;101575.97;5043064;28;19958;-56
2022/08/21 11:05:44;;;;;;;;;;;;;;;22.39;54.65;101566.81;5042831;28;19956;-55
2022/08/21 11:08:11;;;;;;;;;;;;;;;22.43;55.22;101573.41;5042347;28;20388;-55
2022/08/21 11:10:48;;;;;;;;;;;;;;;22.36;54.38;101571.84;5042501;28;19952;-56
2022/08/21 11:13:19;;;;;;;;;;;;;;;22.33;54.38;101565.03;5043232;28;19999;-56
2022/08/21 11:15:56;;;;;;;;;;;;;;;22.34;53.36;101568.56;5041611;28;19932;-56
2022/08/21 11:18:24;;;;;;;;;;;;;;;22.40;53.38;101575.75;5042636;28;19917;-56
2022/08/21 11:20:54;;;;;;;;;;;;;;;22.43;53.22;101578.81;5042823;28;19948;-56
2022/08/21 11:23:19;;;;;;;;;;;;;;;22.43;53.03;101578.00;5041061;28;19917;-57
2022/08/21 11:25:47;;;;;;;;;;;;;;;22.37;52.87;101585.16;5042577;28;19918;-55
2022/08/21 11:28:24;;;;;;;;;;;;;;;22.38;53.60;101570.56;5037645;28;20351;-56
2022/08/21 11:31:04;;;;;;;;;;;;;;;22.38;52.82;101572.44;5041880;28;19913;-57
2022/08/21 11:33:38;;;;;;;;;;;;;;;22.46;52.48;101570.22;5038968;28;20365;-56
2022/08/21 11:36:13;;;;;;;;;;;;;;;22.50;51.83;101568.72;5039928;28;19912;-57
2022/08/21 11:38:47;;;;;;;;;;;;;;;22.53;52.03;101564.72;5039616;28;20024;-56
2022/08/21 11:41:12;;;;;;;;;;;;;;;22.62;52.06;101567.94;5038453;28;20420;-57
2022/08/21 11:43:45;;;;;;;;;;;;;;;22.72;51.05;101562.75;5041835;28;20003;-57
2022/08/21 11:46:29;;;;;;;;;;;;;;;22.80;51.33;101562.41;5037865;28;19917;-56
2022/08/21 11:49:17;;;;;;;;;;;;;;;22.92;51.92;101559.75;5042673;28;19916;-56
2022/08/21 11:51:46;;;;;;;;;;;;;;;23.12;52.08;101577.28;5042210;28;19919;-57
2022/08/21 11:54:28;;;;;;;;;;;;;;;23.12;51.19;101568.34;5041231;28;19991;-55
2022/08/21 11:57:13;;;;;;;;;;;;;;;23.05;50.86;101582.00;5043691;28;19909;-56
2022/08/21 11:59:38;;;;;;;;;;;;;;;22.96;50.50;101588.03;5039698;28;20295;-54
2022/08/21 12:02:08;;;;;;;;;;;;;;;22.92;50.86;101584.97;5031714;28;20266;-56
2022/08/21 12:04:41;;;;;;;;;;;;;;;22.88;50.44;101589.19;5023604;28;19921;-56
2022/08/21 12:07:10;;;;;;;;;;;;;;;22.90;49.72;101586.25;5021778;28;20012;-57
2022/08/21 12:09:37;;;;;;;;;;;;;;;23.03;50.01;101580.59;5021219;28;19930;-55
2022/08/21 12:12:13;;;;;;;;;;;;;;;23.21;49.96;101585.09;5023198;28;19920;-56
2022/08/21 12:14:40;;;;;;;;;;;;;;;23.20;49.87;101586.97;5018352;28;20031;-57
2022/08/21 12:17:06;;;;;;;;;;;;;;;23.23;49.92;101586.50;5025720;28;19975;-57
2022/08/21 12:19:31;;;;;;;;;;;;;;;23.24;49.98;101573.78;5014521;28;20503;-56
2022/08/21 12:21:57;;;;;;;;;;;;;;;23.38;49.57;101584.13;5026284;28;20000;-57
2022/08/21 12:24:33;;;;;;;;;;;;;;;23.37;49.51;101584.34;5023976;28;19917;-57
2022/08/21 12:27:01;;;;;;;;;;;;;;;23.37;48.48;101582.47;5024554;28;19998;-57
2022/08/21 12:29:28;;;;;;;;;;;;;;;23.47;49.09;101584.59;5026509;28;19952;-57
2022/08/21 12:31:53;;;;;;;;;;;;;;;23.60;49.33;101581.66;5029707;28;19913;-56
2022/08/21 12:34:19;;;;;;;;;;;;;;;23.70;49.20;101581.03;5024638;28;19924;-57
2022/08/21 12:36:53;;;;;;;;;;;;;;;23.70;48.59;101581.03;5029679;28;19981;-57
2022/08/21 12:39:21;;;;;;;;;;;;;;;23.71;48.74;101580.81;5025307;28;19932;-57